createdAt,value
2023-10-20T00:00:51.905Z,10.07
2023-10-20T00:03:57.789Z,10.08
2023-10-20T00:07:04.456Z,10.09
2023-10-20T00:10:12.858Z,10.11
2023-10-20T00:13:19.006Z,10.10
2023-10-20T00:16:27.422Z,10.06
2023-10-20T00:19:33.384Z,9.96
2023-10-20T00:22:39.653Z,9.92
2023-10-20T00:25:44.389Z,9.93
2023-10-20T00:28:51.228Z,9.94
2023-10-20T00:31:57.806Z,9.93
2023-10-20T00:35:05.197Z,9.94
2023-10-20T00:38:11.913Z,10.00
2023-10-20T00:41:18.720Z,10.04
2023-10-20T00:44:25.112Z,10.07
2023-10-20T00:47:32.462Z,10.11
2023-10-20T00:50:40.290Z,10.16
2023-10-20T00:53:48.900Z,10.21
2023-10-20T00:56:55.941Z,10.23
2023-10-20T01:00:04.982Z,10.16
2023-10-20T01:03:12.690Z,10.14
2023-10-20T01:06:19.087Z,10.13
2023-10-20T01:09:27.790Z,10.12
2023-10-20T01:12:33.919Z,10.07
2023-10-20T01:15:40.115Z,10.06
2023-10-20T01:18:44.946Z,10.04
2023-10-20T01:21:50.791Z,10.03
2023-10-20T01:24:56.662Z,10.03
2023-10-20T01:28:02.709Z,10.07
2023-10-20T01:31:08.673Z,10.10
2023-10-20T01:34:14.576Z,10.09
2023-10-20T01:37:21.556Z,10.09
2023-10-20T01:40:28.736Z,10.12
2023-10-20T01:43:34.976Z,10.15
2023-10-20T01:46:40.543Z,10.17
2023-10-20T01:49:46.789Z,10.19
2023-10-20T01:52:52.741Z,10.21
2023-10-20T01:55:58.739Z,10.23
2023-10-20T01:59:04.992Z,10.25
2023-10-20T02:02:10.390Z,10.27
2023-10-20T02:05:17.248Z,10.28
2023-10-20T02:08:23.367Z,10.30
2023-10-20T02:11:28.043Z,10.32
2023-10-20T02:14:34.597Z,10.31
2023-10-20T02:17:40.967Z,10.26
2023-10-20T02:20:47.083Z,10.25
2023-10-20T02:23:53.485Z,10.27
2023-10-20T02:26:59.846Z,10.24
2023-10-20T02:30:06.688Z,10.24
2023-10-20T02:33:12.426Z,10.19
2023-10-20T02:36:20.936Z,10.17
2023-10-20T02:39:27.972Z,10.18
2023-10-20T02:42:34.393Z,10.22
2023-10-20T02:45:48.693Z,10.25
2023-10-20T02:48:54.219Z,10.27
2023-10-20T02:52:00.395Z,10.28
2023-10-20T02:55:05.094Z,10.29
2023-10-20T02:58:12.132Z,10.29
2023-10-20T03:01:20.387Z,10.26
2023-10-20T03:04:26.562Z,10.21
2023-10-20T03:07:30.591Z,10.15
2023-10-20T03:10:36.574Z,10.17
2023-10-20T03:13:42.346Z,10.20
2023-10-20T03:16:48.493Z,10.22
2023-10-20T03:19:52.713Z,10.22
2023-10-20T03:22:58.482Z,10.20
2023-10-20T03:26:04.427Z,10.20
2023-10-20T03:29:11.216Z,10.20
2023-10-20T03:32:17.332Z,10.17
2023-10-20T03:35:24.064Z,10.11
2023-10-20T03:38:30.549Z,10.07
2023-10-20T03:41:36.633Z,10.06
2023-10-20T03:44:43.909Z,10.04
2023-10-20T03:47:51.470Z,9.98
2023-10-20T03:50:58.043Z,9.92
2023-10-20T03:54:06.494Z,9.89
2023-10-20T03:57:16.973Z,9.90
2023-10-20T04:00:29.856Z,9.91
2023-10-20T04:03:36.068Z,9.92
2023-10-20T04:06:42.328Z,9.93
2023-10-20T04:09:48.400Z,9.95
2023-10-20T04:12:53.920Z,9.91
2023-10-20T04:16:00.127Z,9.85
2023-10-20T04:19:07.668Z,9.81
2023-10-20T04:22:14.533Z,9.84
2023-10-20T04:25:22.173Z,9.87
2023-10-20T04:28:34.123Z,9.90
2023-10-20T04:31:57.608Z,9.91
2023-10-20T04:35:21.187Z,9.92
2023-10-20T04:38:44.433Z,9.91
2023-10-20T04:41:57.014Z,9.91
2023-10-20T04:45:16.914Z,9.88
2023-10-20T04:48:36.707Z,9.82
2023-10-20T04:51:59.554Z,9.78
2023-10-20T04:55:19.952Z,9.73
2023-10-20T04:58:36.188Z,9.64
2023-10-20T05:01:49.012Z,9.60
2023-10-20T05:04:54.844Z,9.59
2023-10-20T05:08:06.197Z,9.61
2023-10-20T05:11:12.666Z,9.63
2023-10-20T05:14:18.824Z,9.62
2023-10-20T05:17:23.405Z,9.62
2023-10-20T05:20:29.085Z,9.63
2023-10-20T05:23:36.521Z,9.60
2023-10-20T05:26:42.365Z,9.54
2023-10-20T05:29:48.745Z,9.52
2023-10-20T05:32:53.323Z,9.50
2023-10-20T05:36:04.755Z,9.50
2023-10-20T05:39:15.340Z,9.53
2023-10-20T05:42:21.603Z,9.52
2023-10-20T05:45:30.436Z,9.52
2023-10-20T05:48:36.252Z,9.51
2023-10-20T05:51:42.051Z,9.48
2023-10-20T05:54:48.167Z,9.45
2023-10-20T05:57:54.170Z,9.48
2023-10-20T06:01:07.951Z,9.54
2023-10-20T06:04:14.011Z,9.63
2023-10-20T06:07:20.244Z,9.72
2023-10-20T06:10:24.697Z,9.80
2023-10-20T06:13:30.335Z,9.83
2023-10-20T06:16:36.125Z,9.89
2023-10-20T06:19:41.997Z,9.93
2023-10-20T06:22:47.868Z,9.93
2023-10-20T06:25:53.419Z,9.98
2023-10-20T06:28:59.093Z,10.04
2023-10-20T06:32:12.250Z,10.07
2023-10-20T06:35:18.484Z,10.11
2023-10-20T06:38:32.045Z,10.18
2023-10-20T06:41:38.108Z,10.26
2023-10-20T06:44:44.496Z,10.35
2023-10-20T06:47:50.599Z,10.46
2023-10-20T06:50:57.329Z,10.56
2023-10-20T06:54:03.363Z,10.60
2023-10-20T06:57:07.926Z,10.63
2023-10-20T07:00:19.237Z,10.70
2023-10-20T07:03:25.618Z,10.81
2023-10-20T07:06:31.723Z,10.90
2023-10-20T07:09:38.400Z,10.98
2023-10-20T07:12:44.838Z,11.06
2023-10-20T07:15:57.928Z,11.12
2023-10-20T07:19:04.037Z,11.22
2023-10-20T07:22:10.288Z,11.35
2023-10-20T07:25:14.985Z,11.49
2023-10-20T07:28:21.310Z,11.62
2023-10-20T07:31:27.766Z,11.75
2023-10-20T07:34:35.145Z,11.85
2023-10-20T07:37:41.213Z,11.93
2023-10-20T07:40:47.169Z,11.99
2023-10-20T07:43:53.023Z,12.05
2023-10-20T07:46:58.983Z,12.08
2023-10-20T07:50:05.264Z,12.17
2023-10-20T07:53:11.355Z,12.26
2023-10-20T07:56:15.762Z,12.36
2023-10-20T07:59:22.244Z,12.49
2023-10-20T08:02:28.684Z,12.63
2023-10-20T08:05:37.156Z,12.79
2023-10-20T08:08:43.331Z,12.94
2023-10-20T08:11:48.059Z,13.08
2023-10-20T08:14:54.458Z,13.23
2023-10-20T08:18:00.526Z,13.35
2023-10-20T08:21:12.008Z,13.50
2023-10-20T08:24:17.971Z,13.64
2023-10-20T08:27:24.420Z,13.79
2023-10-20T08:30:30.353Z,13.96
2023-10-20T08:33:36.289Z,14.13
2023-10-20T08:36:42.725Z,14.28
2023-10-20T08:39:49.624Z,14.42
2023-10-20T08:42:56.129Z,14.56
2023-10-20T08:46:01.952Z,14.70
2023-10-20T08:49:09.945Z,14.84
2023-10-20T08:52:18.570Z,14.96
2023-10-20T08:55:25.253Z,15.07
2023-10-20T08:58:32.353Z,15.19
2023-10-20T09:01:38.858Z,15.28
2023-10-20T09:04:44.985Z,15.38
2023-10-20T09:07:56.015Z,15.49
2023-10-20T09:11:02.282Z,15.58
2023-10-20T09:14:10.341Z,15.68
2023-10-20T09:17:25.026Z,15.79
2023-10-20T09:20:31.088Z,15.88
2023-10-20T09:23:35.848Z,15.96
2023-10-20T09:26:42.673Z,16.01
2023-10-20T09:29:49.130Z,16.10
2023-10-20T09:32:55.395Z,16.20
2023-10-20T09:36:01.976Z,16.30
2023-10-20T09:39:12.474Z,16.41
2023-10-20T09:42:26.281Z,16.52
2023-10-20T09:45:37.740Z,16.61
2023-10-20T09:48:44.656Z,16.67
2023-10-20T09:51:53.838Z,16.75
2023-10-20T09:55:01.264Z,16.84
2023-10-20T09:58:08.365Z,16.95
2023-10-20T10:01:19.221Z,17.09
2023-10-20T10:04:30.122Z,17.20
2023-10-20T10:07:37.711Z,17.30
2023-10-20T10:10:43.901Z,17.40
2023-10-20T10:13:56.290Z,17.50
2023-10-20T10:17:02.758Z,17.65
2023-10-20T10:20:20.501Z,17.79
2023-10-20T10:23:31.510Z,17.93
2023-10-20T10:26:45.650Z,18.08
2023-10-20T10:29:54.843Z,18.21
2023-10-20T10:33:02.124Z,18.37
2023-10-20T10:36:11.661Z,18.47
2023-10-20T10:39:32.983Z,18.59
2023-10-20T10:42:44.324Z,18.76
2023-10-20T10:45:55.330Z,18.90
2023-10-20T10:49:11.328Z,19.04
2023-10-20T10:52:17.615Z,19.12
2023-10-20T10:55:25.941Z,19.19
2023-10-20T10:58:31.962Z,19.29
2023-10-20T11:01:38.619Z,19.36
2023-10-20T11:04:45.558Z,19.40
2023-10-20T11:08:04.920Z,19.39
2023-10-20T11:11:13.998Z,19.41
2023-10-20T11:14:24.051Z,19.41
2023-10-20T11:17:30.117Z,19.38
2023-10-20T11:20:39.459Z,19.37
2023-10-20T11:23:53.193Z,19.36
2023-10-20T11:27:00.537Z,19.33
2023-10-20T11:30:08.114Z,19.30
2023-10-20T11:33:16.732Z,19.27
2023-10-20T11:36:23.282Z,19.27
2023-10-20T11:39:30.241Z,19.29
2023-10-20T11:42:35.899Z,19.33
2023-10-20T11:45:41.648Z,19.36
2023-10-20T11:48:48.732Z,19.40
2023-10-20T11:51:54.902Z,19.43
2023-10-20T11:55:01.333Z,19.42
2023-10-20T11:58:06.950Z,19.41
2023-10-20T12:01:12.912Z,19.41
2023-10-20T12:04:18.511Z,19.42
2023-10-20T12:07:24.659Z,19.36
2023-10-20T12:10:30.758Z,19.37
2023-10-20T12:13:38.270Z,19.35
2023-10-20T12:16:44.199Z,19.33
2023-10-20T12:19:50.385Z,19.25
2023-10-20T12:23:00.181Z,19.19
2023-10-20T12:26:06.105Z,19.19
2023-10-20T12:29:10.085Z,19.21
2023-10-20T12:32:15.691Z,19.16
2023-10-20T12:35:22.289Z,19.16
2023-10-20T12:38:28.636Z,19.16
2023-10-20T12:41:35.024Z,19.10
2023-10-20T12:44:40.931Z,19.09
2023-10-20T12:47:45.207Z,19.15
2023-10-20T12:50:51.400Z,19.16
2023-10-20T12:53:57.304Z,19.16
2023-10-20T12:57:02.377Z,19.19
2023-10-20T13:00:11.754Z,19.21
2023-10-20T13:03:17.630Z,19.21
2023-10-20T13:06:23.361Z,19.21
2023-10-20T13:09:29.136Z,19.21
2023-10-20T13:12:34.798Z,19.21
2023-10-20T13:15:40.538Z,19.22
2023-10-20T13:18:46.253Z,19.26
2023-10-20T13:21:51.975Z,19.28
2023-10-20T13:24:57.793Z,19.30
2023-10-20T13:28:05.485Z,19.34
2023-10-20T13:31:12.982Z,19.37
2023-10-20T13:34:21.099Z,19.40
2023-10-20T13:37:25.232Z,19.41
2023-10-20T13:40:30.856Z,19.43
2023-10-20T13:43:36.498Z,19.44
2023-10-20T13:46:42.276Z,19.45
2023-10-20T13:49:46.695Z,19.43
2023-10-20T13:52:52.317Z,19.39
2023-10-20T13:55:58.005Z,19.35
2023-10-20T13:59:03.692Z,19.30
2023-10-20T14:02:09.829Z,19.26
2023-10-20T14:05:19.987Z,19.17
2023-10-20T14:08:26.184Z,19.11
2023-10-20T14:11:32.134Z,19.05
2023-10-20T14:14:36.336Z,19.01
2023-10-20T14:17:42.114Z,18.96
2023-10-20T14:20:48.020Z,18.92
2023-10-20T14:23:52.337Z,18.87
2023-10-20T14:27:00.134Z,18.80
2023-10-20T14:30:07.444Z,18.74
2023-10-20T14:33:13.288Z,18.72
2023-10-20T14:36:19.655Z,18.69
2023-10-20T14:39:25.960Z,18.63
2023-10-20T14:42:31.598Z,18.57
2023-10-20T14:45:37.256Z,18.46
2023-10-20T14:48:43.008Z,18.39
2023-10-20T14:51:47.334Z,18.32
2023-10-20T14:54:52.982Z,18.25
2023-10-20T14:57:58.836Z,18.20
2023-10-20T15:01:04.478Z,18.14
2023-10-20T15:04:26.815Z,18.06
2023-10-20T15:07:37.754Z,17.99
2023-10-20T15:10:43.983Z,17.93
2023-10-20T15:13:48.376Z,17.85
2023-10-20T15:16:55.856Z,17.77
2023-10-20T15:20:02.882Z,17.75
2023-10-20T15:23:17.323Z,17.74
2023-10-20T15:26:22.805Z,17.73
2023-10-20T15:29:28.429Z,17.65
2023-10-20T15:32:35.334Z,17.58
2023-10-20T15:35:43.169Z,17.51
2023-10-20T15:38:50.623Z,17.47
2023-10-20T15:41:57.862Z,17.41
2023-10-20T15:45:04.540Z,17.33
2023-10-20T15:48:11.057Z,17.27
2023-10-20T15:51:19.323Z,17.22
2023-10-20T15:54:25.338Z,17.15
2023-10-20T15:57:31.152Z,17.11
2023-10-20T16:00:37.614Z,17.04
2023-10-20T16:03:45.223Z,16.98
2023-10-20T16:06:51.224Z,16.95
2023-10-20T16:09:57.183Z,16.91
2023-10-20T16:13:01.199Z,16.84
2023-10-20T16:16:07.708Z,16.79
2023-10-20T16:19:13.382Z,16.77
2023-10-20T16:22:19.174Z,16.78
2023-10-20T16:25:24.754Z,16.75
2023-10-20T16:28:30.376Z,16.75
2023-10-20T16:31:36.149Z,16.74
2023-10-20T16:34:40.579Z,16.74
2023-10-20T16:37:46.638Z,16.74
2023-10-20T16:40:53.720Z,16.74
2023-10-20T16:43:59.770Z,16.72
2023-10-20T16:47:05.663Z,16.68
2023-10-20T16:50:10.167Z,16.68
2023-10-20T16:53:15.748Z,16.65
2023-10-20T16:56:21.652Z,16.63
2023-10-20T16:59:27.670Z,16.61
2023-10-20T17:02:33.836Z,16.58
2023-10-20T17:05:42.553Z,16.56
2023-10-20T17:08:48.300Z,16.52
2023-10-20T17:11:54.257Z,16.47
2023-10-20T17:14:58.982Z,16.40
2023-10-20T17:18:07.633Z,16.35
2023-10-20T17:21:14.420Z,16.29
2023-10-20T17:24:20.432Z,16.25
2023-10-20T17:27:24.727Z,16.22
2023-10-20T17:30:30.512Z,16.19
2023-10-20T17:33:39.361Z,16.12
2023-10-20T17:36:45.410Z,16.06
2023-10-20T17:39:50.208Z,16.02
2023-10-20T17:42:56.014Z,15.97
2023-10-20T17:46:06.378Z,15.95
2023-10-20T17:49:12.144Z,15.91
2023-10-20T17:52:18.108Z,15.86
2023-10-20T17:55:22.771Z,15.81
2023-10-20T17:58:28.555Z,15.80
2023-10-20T18:01:34.591Z,15.81
2023-10-20T18:04:40.464Z,15.80
2023-10-20T18:07:46.274Z,15.80
2023-10-20T18:10:52.056Z,15.78
2023-10-20T18:13:57.914Z,15.75
2023-10-20T18:17:04.225Z,15.73
2023-10-20T18:20:13.619Z,15.74
2023-10-20T18:23:19.585Z,15.73
2023-10-20T18:26:24.980Z,15.71
2023-10-20T18:29:30.923Z,15.73
2023-10-20T18:32:37.332Z,15.75
2023-10-20T18:35:43.521Z,15.72
2023-10-20T18:38:49.316Z,15.71
2023-10-20T18:41:54.931Z,15.69
2023-10-20T18:45:02.210Z,15.71
2023-10-20T18:48:09.240Z,15.71
2023-10-20T18:51:16.768Z,15.67
2023-10-20T18:54:22.516Z,15.63
2023-10-20T18:57:28.619Z,15.55
2023-10-20T19:00:35.713Z,15.49
2023-10-20T19:03:41.861Z,15.46
2023-10-20T19:06:53.054Z,15.46
2023-10-20T19:09:59.113Z,15.40
2023-10-20T19:13:05.510Z,15.33
2023-10-20T19:16:11.619Z,15.31
2023-10-20T19:19:18.270Z,15.32
2023-10-20T19:22:24.184Z,15.27
2023-10-20T19:25:30.372Z,15.26
2023-10-20T19:28:39.326Z,15.27
2023-10-20T19:31:45.650Z,15.26
2023-10-20T19:34:52.221Z,15.22
2023-10-20T19:37:57.834Z,15.17
2023-10-20T19:41:03.589Z,15.17
2023-10-20T19:44:09.695Z,15.10
2023-10-20T19:47:15.297Z,15.06
2023-10-20T19:50:21.394Z,15.02
2023-10-20T19:53:27.190Z,15.01
2023-10-20T19:56:33.264Z,15.02
2023-10-20T19:59:39.743Z,14.99
2023-10-20T20:02:45.718Z,14.95
2023-10-20T20:05:50.502Z,14.91
2023-10-20T20:08:56.582Z,14.86
2023-10-20T20:12:02.367Z,14.85
2023-10-20T20:15:10.226Z,14.82
2023-10-20T20:18:16.131Z,14.80
2023-10-20T20:21:20.673Z,14.80
2023-10-20T20:24:26.656Z,14.74
2023-10-20T20:27:32.636Z,14.66
2023-10-20T20:30:38.185Z,14.61
2023-10-20T20:33:44.070Z,14.53
2023-10-20T20:36:48.365Z,14.49
2023-10-20T20:39:53.884Z,14.48
2023-10-20T20:42:59.848Z,14.48
2023-10-20T20:46:06.130Z,14.50
2023-10-20T20:49:11.760Z,14.52
2023-10-20T20:52:17.729Z,14.52
2023-10-20T20:55:23.282Z,14.48
2023-10-20T20:58:28.954Z,14.47
2023-10-20T21:01:34.793Z,14.43
2023-10-20T21:04:40.514Z,14.41
2023-10-20T21:07:46.292Z,14.38
2023-10-20T21:10:51.907Z,14.31
2023-10-20T21:13:57.868Z,14.30
2023-10-20T21:17:03.791Z,14.30
2023-10-20T21:20:11.217Z,14.32
2023-10-20T21:23:17.735Z,14.31
2023-10-20T21:26:24.500Z,14.30
2023-10-20T21:29:30.239Z,14.30
2023-10-20T21:32:36.176Z,14.29
2023-10-20T21:35:45.165Z,14.25
2023-10-20T21:38:51.226Z,14.20
2023-10-20T21:41:57.974Z,14.16
2023-10-20T21:45:04.013Z,14.14
2023-10-20T21:48:10.794Z,14.13
2023-10-20T21:51:17.283Z,14.12
2023-10-20T21:54:22.981Z,14.13
2023-10-20T21:57:28.781Z,14.13
2023-10-20T22:00:37.871Z,14.11
2023-10-20T22:03:43.907Z,14.09
2023-10-20T22:06:49.765Z,14.03
2023-10-20T22:09:55.767Z,13.98
2023-10-20T22:13:01.521Z,13.96
2023-10-20T22:16:08.349Z,13.95
2023-10-20T22:19:14.290Z,13.94
2023-10-20T22:22:19.944Z,13.96
2023-10-20T22:25:26.048Z,13.96
2023-10-20T22:28:32.360Z,13.96
2023-10-20T22:31:38.465Z,13.96
2023-10-20T22:34:44.295Z,13.93
2023-10-20T22:37:49.620Z,13.91
2023-10-20T22:40:55.374Z,13.91
2023-10-20T22:44:01.354Z,13.92
2023-10-20T22:47:06.027Z,13.90
2023-10-20T22:50:19.144Z,13.89
2023-10-20T22:53:25.018Z,13.88
2023-10-20T22:56:32.260Z,13.90
2023-10-20T22:59:37.997Z,13.92
2023-10-20T23:02:44.938Z,13.92
2023-10-20T23:05:50.934Z,13.93
2023-10-20T23:08:56.783Z,13.96
2023-10-20T23:12:02.521Z,13.98
2023-10-20T23:15:10.716Z,14.03
2023-10-20T23:18:16.750Z,14.05
2023-10-20T23:21:22.714Z,14.07
2023-10-20T23:24:28.453Z,14.08
2023-10-20T23:27:34.229Z,14.13
2023-10-20T23:30:39.832Z,14.23
2023-10-20T23:33:45.557Z,14.28
2023-10-20T23:36:51.391Z,14.31
2023-10-20T23:39:57.679Z,14.32
2023-10-20T23:43:03.412Z,14.29
2023-10-20T23:46:09.195Z,14.32
2023-10-20T23:49:15.947Z,14.35
2023-10-20T23:52:21.794Z,14.35
2023-10-20T23:55:30.387Z,14.34
2023-10-20T23:58:36.181Z,14.32
